Time;durP1;ratioP1;P1;durP2;ratioP2;P2;SDS_P1;SDS_P2;PMS_P1;PMS_P2;Temp;Humidity;BMP_temperature;BMP_pressure;BME280_temperature;BME280_humidity;BME280_pressure;Samples;Min_cycle;Max_cycle;Signal;HPM_P1;HPM_P2
2022/08/11 00:01:51;;;;;;;4.00;3.60;;;20.10;99.90;;;;;;5076338;28;20225;-70
2022/08/11 00:04:20;;;;;;;6.10;3.87;;;20.00;99.90;;;;;;5076270;28;20171;-70
2022/08/11 00:06:47;;;;;;;5.10;3.83;;;19.90;99.90;;;;;;5076527;28;20270;-70
2022/08/11 00:09:18;;;;;;;4.33;3.90;;;19.60;99.90;;;;;;5075778;28;20200;-73
2022/08/11 00:11:55;;;;;;;4.17;3.83;;;19.00;99.90;;;;;;5077058;28;20299;-75
2022/08/11 00:14:27;;;;;;;4.03;3.57;;;-14.70;99.90;;;;;;5076457;28;20193;-76
2022/08/11 00:17:19;;;;;;;3.57;3.37;;;-18.70;99.90;;;;;;5083727;28;20270;-73
2022/08/11 00:19:47;;;;;;;4.87;3.63;;;-20.50;99.80;;;;;;5073008;28;20645;-73
2022/08/11 00:22:20;;;;;;;3.67;3.30;;;-17.10;99.90;;;;;;5076344;28;20187;-75
2022/08/11 00:24:46;;;;;;;3.97;3.60;;;-17.50;99.90;;;;;;5076836;28;20275;-71
2022/08/11 00:27:12;;;;;;;3.77;3.47;;;-15.30;99.90;;;;;;5076342;28;20175;-72
2022/08/11 00:29:38;;;;;;;4.30;3.90;;;-15.50;99.90;;;;;;5076868;28;20192;-70
2022/08/11 00:32:12;;;;;;;3.67;3.13;;;-18.70;99.90;;;;;;5076699;28;20618;-70
2022/08/11 00:34:40;;;;;;;3.20;3.00;;;-12.70;99.90;;;;;;5076662;28;20182;-71
2022/08/11 00:37:09;;;;;;;4.60;3.53;;;17.70;99.90;;;;;;5075690;28;20175;-72
2022/08/11 00:39:42;;;;;;;4.37;3.97;;;19.80;99.90;;;;;;5080120;28;20262;-73
2022/08/11 00:42:29;;;;;;;4.13;3.77;;;19.80;99.90;;;;;;5076746;28;20207;-75
2022/08/11 00:45:05;;;;;;;3.63;3.37;;;19.70;99.90;;;;;;5075750;28;20198;-74
2022/08/11 00:47:34;;;;;;;3.50;2.97;;;19.60;99.90;;;;;;5076151;28;20198;-74
2022/08/11 00:50:26;;;;;;;3.63;3.30;;;19.60;99.90;;;;;;5075574;28;20474;-77
2022/08/11 00:53:25;;;;;;;2.93;2.73;;;19.40;99.90;;;;;;5075987;28;20210;-76
2022/08/11 00:56:08;;;;;;;3.17;2.97;;;19.30;99.90;;;;;;5077401;28;20256;-77
2022/08/11 00:58:34;;;;;;;6.93;4.03;;;19.30;99.90;;;;;;5075001;28;20612;-76
2022/08/11 01:01:14;;;;;;;4.17;3.87;;;19.10;99.90;;;;;;5075921;28;20187;-75
2022/08/11 01:04:16;;;;;;;3.00;2.80;;;18.80;99.90;;;;;;5076973;28;20182;-76
2022/08/11 01:07:04;;;;;;;3.03;2.83;;;19.40;99.90;;;;;;5076235;28;20187;-73
2022/08/11 01:09:44;;;;;;;2.70;2.50;;;19.30;99.90;;;;;;5075905;28;20179;-74
2022/08/11 01:12:39;;;;;;;2.47;2.37;;;19.30;99.90;;;;;;5076216;28;20261;-75
2022/08/11 01:15:32;;;;;;;3.53;3.07;;;19.30;99.90;;;;;;5076095;28;20195;-74
2022/08/11 01:18:13;;;;;;;3.63;3.43;;;19.20;99.90;;;;;;5075788;28;20183;-74
2022/08/11 01:21:06;;;;;;;3.40;3.17;;;19.10;99.90;;;;;;5077139;28;20598;-76
2022/08/11 01:23:47;;;;;;;2.90;2.70;;;19.00;99.90;;;;;;5079921;28;20178;-73
2022/08/11 01:26:13;;;;;;;3.73;3.47;;;19.00;99.90;;;;;;5080256;28;20172;-72
2022/08/11 01:29:03;;;;;;;3.57;3.27;;;19.00;99.90;;;;;;5079566;28;20182;-71
2022/08/11 01:32:06;;;;;;;2.80;2.60;;;18.90;99.90;;;;;;5079571;28;20293;-72
2022/08/11 01:35:09;;;;;;;2.90;2.80;;;18.80;99.90;;;;;;5078655;28;20175;-70
2022/08/11 01:38:06;;;;;;;4.93;3.50;;;18.80;99.90;;;;;;5078655;28;20226;-71
2022/08/11 01:41:09;;;;;;;3.83;3.20;;;18.70;99.90;;;;;;5056397;28;20606;-72
2022/08/11 01:46:48;;;;;;;3.20;3.00;;;18.50;99.90;;;;;;5079458;28;20194;-71
2022/08/11 01:49:38;;;;;;;3.23;2.83;;;18.40;99.90;;;;;;5078984;28;20176;-72
2022/08/11 01:52:07;;;;;;;3.77;3.00;;;18.20;99.90;;;;;;5078896;28;20687;-71
2022/08/11 01:54:38;;;;;;;3.80;3.50;;;17.60;99.90;;;;;;5078877;28;20191;-72
2022/08/11 01:57:19;;;;;;;3.93;3.73;;;17.20;99.90;;;;;;5077976;28;20298;-71
2022/08/11 02:00:08;;;;;;;3.13;2.93;;;16.30;99.90;;;;;;5078673;28;20187;-74
2022/08/11 02:02:46;;;;;;;3.13;2.93;;;15.60;99.90;;;;;;5079017;28;20194;-76
2022/08/11 02:05:48;;;;;;;3.50;2.93;;;15.70;99.90;;;;;;5079599;28;20544;-74
2022/08/11 02:08:28;;;;;;;3.30;3.10;;;15.70;99.90;;;;;;5078914;28;20512;-72
2022/08/11 02:14:15;;;;;;;3.57;3.27;;;18.40;99.90;;;;;;5078807;28;20593;-75
2022/08/11 02:17:02;;;;;;;3.17;2.90;;;18.40;99.90;;;;;;5079005;28;20182;-71
2022/08/11 02:26:10;;;;;;;3.17;2.87;;;18.20;99.90;;;;;;5078013;28;20241;-71
2022/08/11 02:28:48;;;;;;;3.23;2.67;;;18.20;99.90;;;;;;5078520;28;20189;-76
2022/08/11 02:34:19;;;;;;;3.57;3.23;;;18.10;99.90;;;;;;5077415;28;20628;-72
2022/08/11 02:36:59;;;;;;;3.47;3.23;;;18.00;99.90;;;;;;5078164;28;20186;-77
2022/08/11 02:39:38;;;;;;;3.87;3.67;;;17.90;99.90;;;;;;5078407;28;20641;-77
2022/08/11 02:42:23;;;;;;;3.10;2.70;;;17.80;99.90;;;;;;5077211;28;20256;-73
2022/08/11 02:45:27;;;;;;;4.67;4.27;;;17.80;99.90;;;;;;5077425;28;20639;-75
2022/08/11 02:51:21;;;;;;;5.20;2.80;;;17.50;99.90;;;;;;5016747;28;20195;-77
2022/08/11 02:54:15;;;;;;;3.50;3.30;;;17.50;99.90;;;;;;5050059;28;20193;-78
2022/08/11 02:56:59;;;;;;;3.40;3.10;;;17.40;99.90;;;;;;5081936;28;20187;-73
2022/08/11 02:59:49;;;;;;;3.13;2.93;;;16.90;99.90;;;;;;5077402;28;20593;-74
2022/08/11 03:02:37;;;;;;;4.07;3.67;;;16.30;99.90;;;;;;5081463;28;20274;-74
2022/08/11 03:05:20;;;;;;;4.50;3.80;;;17.50;99.90;;;;;;5077631;28;20210;-72
2022/08/11 03:08:12;;;;;;;4.30;3.87;;;17.40;99.90;;;;;;5077847;28;20199;-76
2022/08/11 03:17:11;;;;;;;3.83;3.43;;;17.30;99.90;;;;;;5078339;28;20194;-76
2022/08/11 03:20:10;;;;;;;3.33;3.10;;;17.40;99.90;;;;;;5077678;28;20175;-72
2022/08/11 03:23:11;;;;;;;4.90;3.10;;;17.20;99.90;;;;;;5077208;28;20535;-70
2022/08/11 03:26:00;;;;;;;6.77;3.80;;;17.20;99.90;;;;;;5075503;28;20269;-74
2022/08/11 03:28:35;;;;;;;3.80;3.53;;;17.00;99.90;;;;;;5076442;28;20602;-75
2022/08/11 03:31:28;;;;;;;5.53;3.27;;;16.80;99.90;;;;;;5083608;28;20210;-73
2022/08/11 03:34:02;;;;;;;3.63;3.37;;;16.50;99.90;;;;;;5077572;28;20171;-75
2022/08/11 03:37:05;;;;;;;5.57;3.90;;;15.90;99.90;;;;;;5077467;28;20657;-74
2022/08/11 03:39:48;;;;;;;5.00;4.07;;;14.00;99.90;;;;;;5076076;28;20190;-76
2022/08/11 03:42:26;;;;;;;3.50;2.93;;;-7.90;99.90;;;;;;5076387;28;20477;-72
2022/08/11 03:45:26;;;;;;;3.17;2.87;;;-9.30;99.90;;;;;;5075873;28;20202;-73
2022/08/11 03:48:06;;;;;;;3.33;3.10;;;-9.00;99.90;;;;;;5081842;28;20179;-71
2022/08/11 03:51:02;;;;;;;3.70;3.40;;;-10.20;99.90;;;;;;5077722;28;20210;-73
2022/08/11 03:54:02;;;;;;;3.63;3.43;;;-10.60;99.90;;;;;;5076988;28;20526;-73
2022/08/11 03:56:46;;;;;;;4.10;3.40;;;-11.10;99.90;;;;;;5077189;28;20257;-75
2022/08/11 03:59:33;;;;;;;3.30;3.03;;;-6.50;99.90;;;;;;5075353;28;20210;-74
2022/08/11 04:02:39;;;;;;;3.70;3.50;;;-9.00;99.90;;;;;;5077095;28;20184;-73
2022/08/11 04:05:46;;;;;;;3.50;3.20;;;-8.00;99.90;;;;;;5077561;28;20208;-76
2022/08/11 04:08:40;;;;;;;3.90;3.60;;;-8.40;99.90;;;;;;5076790;28;20171;-78
2022/08/11 04:11:24;;;;;;;3.10;2.97;;;-8.50;99.90;;;;;;5077828;28;20206;-79
2022/08/11 04:17:25;;;;;;;5.90;3.60;;;17.20;99.90;;;;;;5076642;28;20272;-78
2022/08/11 04:20:16;;;;;;;3.20;3.00;;;17.10;99.90;;;;;;5076831;28;20705;-77
2022/08/11 04:23:19;;;;;;;3.13;2.93;;;17.10;99.90;;;;;;5076523;28;20179;-75
2022/08/11 04:26:05;;;;;;;4.23;3.83;;;17.10;99.90;;;;;;5076219;28;20178;-79
2022/08/11 04:29:04;;;;;;;3.03;2.90;;;17.00;99.90;;;;;;5077010;28;20183;-77
2022/08/11 04:32:14;;;;;;;3.77;3.47;;;17.00;99.90;;;;;;5076371;28;20622;-77
2022/08/11 04:34:59;;;;;;;4.10;3.80;;;17.00;99.90;;;;;;5076253;28;20186;-78
2022/08/11 04:37:37;;;;;;;3.50;3.30;;;17.00;99.90;;;;;;5076029;28;20175;-75
2022/08/11 04:40:23;;;;;;;3.40;2.63;;;17.00;99.90;;;;;;5076051;28;20182;-76
2022/08/11 04:43:41;;;;;;;3.53;3.33;;;17.00;99.90;;;;;;5076708;28;20270;-78
2022/08/11 04:46:40;;;;;;;4.57;4.17;;;16.90;99.90;;;;;;5075890;28;20190;-73
2022/08/11 05:02:23;;;;;;;3.20;3.00;;;16.70;99.90;;;;;;5019839;28;20284;-74
2022/08/11 05:08:01;;;;;;;3.80;3.50;;;16.80;99.90;;;;;;5080363;28;20519;-76
2022/08/11 05:10:42;;;;;;;5.87;3.97;;;16.80;99.90;;;;;;5080720;28;20183;-76
2022/08/11 05:36:24;;;;;;;8.37;4.60;;;17.10;99.90;;;;;;5081333;28;20206;-76
2022/08/11 05:58:40;;;;;;;10.40;5.80;;;17.80;99.90;;;;;;5079202;28;20194;-74
2022/08/11 06:01:07;;;;;;;4.07;3.50;;;17.80;99.90;;;;;;5079557;28;20186;-73
2022/08/11 06:04:12;;;;;;;5.33;4.00;;;15.80;99.90;;;;;;5078239;28;20179;-73
2022/08/11 06:06:25;;;;;;;6.80;4.57;;;18.00;99.90;;;;;;5079391;28;20275;-71
2022/08/11 06:08:55;;;;;;;9.10;4.37;;;18.10;99.90;;;;;;5076915;28;20167;-72
2022/08/11 06:11:21;;;;;;;4.23;3.90;;;18.10;99.90;;;;;;5078243;28;20264;-71
2022/08/11 06:13:47;;;;;;;6.73;4.37;;;18.10;99.90;;;;;;5078367;28;20494;-73
2022/08/11 06:16:19;;;;;;;5.17;4.67;;;18.30;99.90;;;;;;5078806;28;20172;-72
2022/08/11 06:18:46;;;;;;;7.10;4.47;;;18.30;99.90;;;;;;5078183;28;20266;-72
2022/08/11 06:21:14;;;;;;;6.80;4.07;;;18.40;99.90;;;;;;5078897;28;20590;-74
2022/08/11 06:23:41;;;;;;;6.13;4.33;;;18.40;99.90;;;;;;5079017;28;20175;-73
2022/08/11 06:26:09;;;;;;;3.83;3.50;;;18.50;99.90;;;;;;5078901;28;20174;-73
2022/08/11 06:28:37;;;;;;;4.77;3.77;;;18.60;99.90;;;;;;5078078;28;20182;-72
2022/08/11 06:31:23;;;;;;;3.73;3.43;;;18.60;99.90;;;;;;5077560;28;20207;-72
2022/08/11 06:34:14;;;;;;;4.23;3.93;;;18.50;99.90;;;;;;5082694;28;20602;-74
2022/08/11 06:37:12;;;;;;;5.03;3.57;;;18.40;99.90;;;;;;5078103;28;20175;-70
2022/08/11 06:39:51;;;;;;;5.37;4.70;;;16.70;99.90;;;;;;5080295;28;20546;-72
2022/08/11 06:42:35;;;;;;;4.27;3.87;;;19.40;99.90;;;;;;5078790;28;20259;-74
2022/08/11 06:45:27;;;;;;;5.93;3.50;;;19.50;99.90;;;;;;5077842;28;20203;-73
2022/08/11 06:47:53;;;;;;;4.03;3.60;;;19.60;99.90;;;;;;5077447;28;20532;-73
2022/08/11 06:53:11;;;;;;;4.40;3.50;;;19.70;99.90;;;;;;5077585;28;20288;-71
2022/08/11 07:01:20;;;;;;;11.40;4.33;;;20.50;99.90;;;;;;5077526;28;20198;-71
2022/08/11 07:03:56;;;;;;;5.90;3.37;;;20.60;99.90;;;;;;5076964;28;20665;-71
2022/08/11 07:06:41;;;;;;;5.93;3.57;;;20.60;99.90;;;;;;5089358;28;20193;-71
2022/08/11 07:29:11;;;;;;;7.40;2.97;;;21.50;99.90;;;;;;5076500;28;20241;-74
2022/08/11 07:31:40;;;;;;;5.80;3.20;;;21.50;99.90;;;;;;5076482;28;20645;-74
2022/08/11 07:34:06;;;;;;;3.27;3.07;;;21.40;99.90;;;;;;5078073;28;20192;-75
2022/08/11 07:36:36;;;;;;;7.80;2.97;;;21.20;99.90;;;;;;5077426;28;20484;-74
2022/08/11 07:39:02;;;;;;;4.83;3.03;;;19.90;99.90;;;;;;5083814;28;20221;-72
2022/08/11 07:41:32;;;;;;;3.53;3.33;;;15.80;99.90;;;;;;5077439;28;20485;-74
2022/08/11 07:44:08;;;;;;;3.30;2.80;;;22.20;99.90;;;;;;5076593;28;20185;-74
2022/08/11 07:52:32;;;;;;;3.37;2.97;;;22.30;99.90;;;;;;5076983;28;20221;-74
2022/08/11 07:55:10;;;;;;;4.23;2.77;;;22.30;99.90;;;;;;5087517;28;20179;-74
2022/08/11 08:19:43;;;;;;;5.40;3.00;;;23.10;99.90;;;;;;5076491;28;20186;-73
2022/08/11 08:22:10;;;;;;;3.77;3.43;;;23.00;99.80;;;;;;5075601;28;20198;-75
2022/08/11 08:24:40;;;;;;;4.07;3.73;;;22.70;99.60;;;;;;5076029;28;20207;-73
2022/08/11 08:27:06;;;;;;;5.13;3.07;;;23.60;98.80;;;;;;5077784;28;20187;-73
2022/08/11 08:32:20;;;;;;;3.03;2.23;;;23.90;98.50;;;;;;5079934;28;20555;-70
2022/08/11 08:34:49;;;;;;;2.87;2.67;;;23.90;98.30;;;;;;5080141;28;20254;-71
2022/08/11 08:37:20;;;;;;;7.77;3.20;;;23.80;98.40;;;;;;5080679;28;20178;-72
2022/08/11 08:39:47;;;;;;;6.53;2.70;;;23.70;97.70;;;;;;5078707;28;20179;-74
2022/08/11 08:42:18;;;;;;;3.40;3.07;;;23.60;97.90;;;;;;5084366;28;20537;-70
2022/08/11 08:44:50;;;;;;;9.57;2.77;;;23.30;97.10;;;;;;5079357;28;20179;-73
2022/08/11 08:47:18;;;;;;;5.90;2.93;;;24.20;97.10;;;;;;5080533;28;20171;-73
2022/08/11 08:50:01;;;;;;;7.13;3.27;;;24.40;97.20;;;;;;5080049;28;20265;-74
2022/08/11 08:52:32;;;;;;;4.87;2.77;;;24.50;96.60;;;;;;5079421;28;20207;-71
2022/08/11 08:55:03;;;;;;;5.70;3.37;;;24.60;96.60;;;;;;5079509;28;20214;-70
2022/08/11 08:57:35;;;;;;;4.47;3.77;;;24.40;96.50;;;;;;5079056;28;20269;-74
2022/08/11 09:00:04;;;;;;;3.10;2.90;;;24.90;96.20;;;;;;5079367;28;20215;-71
2022/08/11 09:02:30;;;;;;;4.00;3.00;;;25.00;95.40;;;;;;5079600;28;20215;-71
2022/08/11 09:04:57;;;;;;;9.33;2.90;;;25.10;93.80;;;;;;5079909;28;20266;-70
2022/08/11 09:07:25;;;;;;;3.17;2.83;;;25.00;94.50;;;;;;5078285;28;20202;-73
2022/08/11 09:09:57;;;;;;;3.07;2.53;;;24.60;94.00;;;;;;5078896;28;20179;-72
2022/08/11 09:12:28;;;;;;;2.93;2.70;;;25.50;93.90;;;;;;5079460;28;20199;-71
2022/08/11 09:15:02;;;;;;;4.57;2.50;;;25.60;92.90;;;;;;5087804;28;20519;-71
2022/08/11 09:18:04;;;;;;;4.80;2.73;;;25.70;93.30;;;;;;5078850;28;20183;-71
2022/08/11 09:20:35;;;;;;;5.03;3.43;;;23.40;91.30;;;;;;5085720;28;20175;-73
2022/08/11 09:28:44;;;;;;;4.00;3.13;;;26.20;91.00;;;;;;5080009;28;20206;-71
2022/08/11 09:31:12;;;;;;;9.90;3.10;;;26.20;91.00;;;;;;5078957;28;20215;-69
2022/08/11 09:33:39;;;;;;;3.73;2.87;;;24.70;86.70;;;;;;5079303;28;20171;-72
2022/08/11 09:41:41;;;;;;;4.13;2.60;;;-40.00;49.50;;;;;;5079604;28;20594;-72
2022/08/11 09:46:58;;;;;;;7.57;3.57;;;-40.00;48.60;;;;;;5079956;28;20182;-73
2022/08/11 09:49:25;;;;;;;3.90;3.60;;;-40.00;48.30;;;;;;5079544;28;20171;-71
2022/08/11 09:51:52;;;;;;;5.47;3.47;;;-40.00;46.90;;;;;;5084587;28;20573;-70
2022/08/11 09:54:18;;;;;;;5.63;2.83;;;-40.00;47.00;;;;;;5078079;28;20190;-70
2022/08/11 09:59:29;;;;;;;6.40;2.73;;;27.60;85.90;;;;;;5078708;28;20612;-70
2022/08/11 10:02:01;;;;;;;2.97;2.77;;;27.70;86.40;;;;;;5078560;28;20190;-74
2022/08/11 10:04:44;;;;;;;4.03;3.20;;;27.70;84.40;;;;;;5078093;28;20430;-74
2022/08/11 10:07:14;;;;;;;6.53;2.77;;;27.70;83.00;;;;;;5079074;28;20190;-72
2022/08/11 10:09:46;;;;;;;3.67;2.57;;;27.50;83.00;;;;;;5078250;28;20183;-74
2022/08/11 10:12:26;;;;;;;2.93;2.67;;;27.70;81.30;;;;;;5082590;28;20227;-74
2022/08/11 10:20:35;;;;;;;12.53;3.20;;;27.90;79.80;;;;;;5085585;28;20295;-71
2022/08/11 10:28:35;;;;;;;4.70;2.93;;;27.40;78.40;;;;;;5078646;28;20239;-75
2022/08/11 10:34:02;;;;;;;3.30;2.90;;;27.20;76.20;;;;;;5078205;28;20187;-73
2022/08/11 10:36:34;;;;;;;3.30;2.93;;;28.60;77.80;;;;;;5078022;28;20274;-71
2022/08/11 10:39:03;;;;;;;10.27;2.97;;;28.80;77.60;;;;;;5078133;28;20187;-71
2022/08/11 10:44:15;;;;;;;6.83;3.87;;;29.00;76.50;;;;;;5082351;28;20233;-72
2022/08/11 10:49:27;;;;;;;3.70;2.60;;;28.60;77.60;;;;;;5078523;28;20262;-74
2022/08/11 11:00:15;;;;;;;3.13;2.20;;;30.00;72.40;;;;;;5077215;28;20201;-73
2022/08/11 11:02:45;;;;;;;4.60;3.17;;;30.20;73.80;;;;;;5077421;28;20179;-74
2022/08/11 11:05:29;;;;;;;6.47;2.57;;;30.20;71.80;;;;;;5080237;28;20179;-71
2022/08/11 11:08:51;;;;;;;5.30;3.30;;;30.20;73.60;;;;;;5076937;28;20198;-70
2022/08/11 11:10:53;;;;;;;4.47;4.13;;;30.10;73.50;;;;;;5078054;28;20223;-73
2022/08/11 11:18:51;;;;;;;3.00;2.78;;;-40.00;34.90;;;;;;5077929;28;20637;-73
2022/08/11 11:21:19;;;;;;;2.65;2.55;;;30.50;73.10;;;;;;5077265;28;20187;-70
2022/08/11 11:23:48;;;;;;;2.40;2.17;;;30.70;71.40;;;;;;5080597;28;20183;-73
2022/08/11 11:26:23;;;;;;;4.60;3.13;;;30.70;69.00;;;;;;5076949;28;20189;-72
2022/08/11 11:29:19;;;;;;;5.30;3.28;;;30.50;69.40;;;;;;5077540;28;20492;-73
2022/08/11 11:31:45;;;;;;;6.63;2.70;;;26.30;65.00;;;;;;5077384;28;20211;-69
2022/08/11 11:34:51;;;;;;;4.13;3.05;;;31.10;69.20;;;;;;5077434;28;20627;-71
2022/08/11 11:37:17;;;;;;;3.00;2.65;;;31.20;68.30;;;;;;5076996;28;20183;-75
2022/08/11 11:39:45;;;;;;;2.80;2.70;;;28.60;65.70;;;;;;5077492;28;20197;-70
2022/08/11 11:42:11;;;;;;;3.13;2.55;;;31.60;67.60;;;;;;5076107;28;20198;-70
2022/08/11 11:44:38;;;;;;;5.25;3.08;;;31.70;66.90;;;;;;5076488;28;20201;-73
2022/08/11 11:47:05;;;;;;;3.60;3.20;;;31.60;68.60;;;;;;5076185;28;20598;-74
2022/08/11 11:49:31;;;;;;;6.43;3.55;;;29.80;63.30;;;;;;5076428;28;20205;-75
2022/08/11 11:51:59;;;;;;;2.63;1.90;;;32.10;65.30;;;;;;5076441;28;20580;-72
2022/08/11 11:54:27;;;;;;;2.30;2.20;;;32.20;67.30;;;;;;5076879;28;20194;-71
2022/08/11 11:56:55;;;;;;;21.52;3.20;;;-40.00;27.90;;;;;;5077269;28;20248;-74
2022/08/11 12:02:09;;;;;;;2.70;2.40;;;-40.00;24.20;;;;;;5077510;28;20238;-70
2022/08/11 12:04:44;;;;;;;3.70;2.50;;;-30.80;29.00;;;;;;5082725;28;20474;-70
2022/08/11 12:09:56;;;;;;;2.30;2.17;;;-2.60;39.10;;;;;;5076639;28;20190;-71
2022/08/11 12:15:08;;;;;;;4.50;2.58;;;5.30;40.30;;;;;;5081475;28;20490;-72
2022/08/11 12:17:37;;;;;;;2.72;2.58;;;9.30;41.10;;;;;;5075839;28;20325;-71
2022/08/11 12:20:04;;;;;;;2.40;2.20;;;12.00;42.10;;;;;;5075704;28;20172;-72
2022/08/11 12:28:01;;;;;;;8.13;3.20;;;13.70;40.40;;;;;;5076639;28;20233;-70
2022/08/11 12:30:27;;;;;;;2.88;2.67;;;14.30;40.30;;;;;;5076285;28;20522;-71
2022/08/11 12:32:54;;;;;;;2.85;2.67;;;16.20;40.70;;;;;;5075597;28;20572;-70
2022/08/11 12:35:21;;;;;;;3.13;2.92;;;19.00;42.10;;;;;;5075737;28;20175;-70
2022/08/11 12:37:56;;;;;;;3.75;2.83;;;20.20;42.90;;;;;;5076718;28;20648;-71
2022/08/11 12:46:02;;;;;;;7.85;2.70;;;20.10;38.10;;;;;;5076464;28;20320;-74
2022/08/11 12:54:16;;;;;;;3.25;2.95;;;22.90;38.40;;;;;;5082492;28;20264;-72
2022/08/11 13:05:12;;;;;;;5.63;2.90;;;25.60;36.80;;;;;;5075478;28;20202;-75
2022/08/11 13:07:41;;;;;;;3.10;2.90;;;24.90;35.20;;;;;;5075678;28;20172;-74
2022/08/11 13:10:09;;;;;;;2.95;2.75;;;27.00;37.50;;;;;;5076428;28;20203;-74
2022/08/11 13:12:48;;;;;;;2.72;2.53;;;29.00;37.80;;;;;;5075510;28;20586;-74
2022/08/11 13:15:20;;;;;;;4.43;2.70;;;29.60;39.30;;;;;;5076191;28;20203;-74
2022/08/11 13:17:48;;;;;;;3.75;2.30;;;30.70;38.20;;;;;;5077910;28;20260;-73
2022/08/11 13:20:18;;;;;;;3.55;3.30;;;32.80;37.70;;;;;;5079798;28;20574;-75
2022/08/11 13:22:48;;;;;;;3.17;2.88;;;32.30;38.50;;;;;;5085739;28;20270;-75
2022/08/11 13:25:16;;;;;;;4.18;3.15;;;32.80;38.30;;;;;;5079845;28;20609;-76
2022/08/11 13:27:44;;;;;;;3.47;3.17;;;32.70;36.10;;;;;;5080350;28;20662;-77
2022/08/11 13:32:57;;;;;;;3.40;3.10;;;32.90;35.80;;;;;;5078202;28;20350;-76
2022/08/11 13:35:23;;;;;;;3.33;3.22;;;32.60;36.30;;;;;;5083890;28;20211;-76
2022/08/11 13:37:50;;;;;;;3.58;2.88;;;32.50;36.90;;;;;;5080060;28;20233;-76
2022/08/11 13:40:19;;;;;;;3.58;3.28;;;31.70;37.70;;;;;;5078279;28;20194;-76
2022/08/11 13:42:46;;;;;;;4.93;2.80;;;31.30;35.90;;;;;;5079539;28;20222;-76
2022/08/11 13:45:13;;;;;;;3.50;2.85;;;31.10;36.90;;;;;;5079024;28;20266;-74
2022/08/11 13:47:41;;;;;;;3.10;2.90;;;30.80;37.30;;;;;;5078154;28;20190;-75
2022/08/11 13:50:09;;;;;;;6.00;2.97;;;30.80;36.40;;;;;;5083570;28;20241;-73
2022/08/11 13:52:38;;;;;;;3.10;2.83;;;30.90;37.20;;;;;;5084393;28;20207;-73
2022/08/11 13:55:09;;;;;;;4.13;3.55;;;31.40;37.70;;;;;;5089798;28;20179;-74
2022/08/11 13:57:36;;;;;;;4.53;3.00;;;31.40;35.40;;;;;;5079008;28;20183;-73
2022/08/11 14:00:10;;;;;;;3.28;2.97;;;31.50;35.20;;;;;;5078488;28;20226;-76
2022/08/11 14:02:41;;;;;;;3.95;3.55;;;31.50;36.30;;;;;;5078095;28;20262;-76
2022/08/11 14:05:14;;;;;;;4.63;3.50;;;32.60;34.50;;;;;;5078172;28;20190;-74
2022/08/11 14:07:48;;;;;;;5.95;3.15;;;33.10;37.30;;;;;;5079666;28;20171;-75
2022/08/11 14:10:16;;;;;;;4.10;3.80;;;32.90;37.10;;;;;;5079523;28;20198;-76
2022/08/11 14:15:34;;;;;;;6.13;3.47;;;32.90;35.90;;;;;;5078751;28;20198;-76
2022/08/11 14:18:10;;;;;;;4.88;3.33;;;32.80;34.90;;;;;;5077972;28;20222;-74
2022/08/11 14:23:37;;;;;;;7.07;3.53;;;32.30;35.20;;;;;;5078970;28;20225;-75
2022/08/11 14:26:25;;;;;;;2.90;2.70;;;32.50;36.40;;;;;;5081975;28;20194;-76
2022/08/11 14:29:09;;;;;;;3.42;3.13;;;32.20;36.50;;;;;;5077174;28;20606;-74
2022/08/11 14:31:43;;;;;;;8.10;2.95;;;32.40;35.20;;;;;;5078000;28;20218;-75
2022/08/11 14:34:11;;;;;;;4.97;3.45;;;40.60;40.60;;;;;;5077355;28;20178;-75
2022/08/11 14:36:46;;;;;;;7.10;3.88;;;37.70;38.30;;;;;;5078868;28;20247;-74
2022/08/11 14:39:16;;;;;;;3.28;3.10;;;42.10;41.30;;;;;;5078453;28;20179;-76
2022/08/11 14:47:18;;;;;;;3.97;3.70;;;42.20;37.30;;;;;;5077404;28;20190;-74
2022/08/11 14:49:45;;;;;;;4.07;3.78;;;42.30;38.30;;;;;;5078239;28;20472;-76
2022/08/11 14:52:14;;;;;;;4.18;3.90;;;42.40;38.60;;;;;;5079749;28;20339;-74
2022/08/11 14:57:36;;;;;;;4.40;4.05;;;42.90;36.50;;;;;;5077494;28;20257;-74
2022/08/11 15:00:06;;;;;;;3.70;3.53;;;42.60;36.20;;;;;;5077783;28;20198;-74
2022/08/11 15:05:23;;;;;;;4.70;4.50;;;43.30;37.10;;;;;;5076534;28;20186;-72
2022/08/11 15:07:50;;;;;;;5.07;3.67;;;43.20;36.40;;;;;;5078255;28;20270;-75
2022/08/11 15:10:18;;;;;;;7.10;4.20;;;43.40;35.80;;;;;;5077979;28;20185;-73
2022/08/11 15:12:45;;;;;;;4.75;4.50;;;43.40;35.50;;;;;;5077374;28;20524;-73
2022/08/11 15:17:58;;;;;;;3.92;3.63;;;42.80;35.80;;;;;;5076579;28;20185;-74
2022/08/11 15:26:14;;;;;;;4.72;4.25;;;43.10;35.80;;;;;;5078041;28;20275;-75
2022/08/11 15:37:25;;;;;;;6.13;4.22;;;42.70;35.30;;;;;;5077090;28;20189;-74
2022/08/11 15:45:48;;;;;;;5.43;4.97;;;42.50;33.80;;;;;;5076845;28;20216;-74
2022/08/11 15:48:25;;;;;;;5.35;4.13;;;42.10;36.00;;;;;;5083845;28;20529;-75
2022/08/11 15:50:54;;;;;;;5.10;4.15;;;42.20;36.50;;;;;;5077731;28;20186;-72
2022/08/11 15:53:30;;;;;;;4.65;4.47;;;42.10;35.10;;;;;;5079751;28;20300;-75
2022/08/11 15:55:58;;;;;;;4.97;4.57;;;42.30;36.20;;;;;;5076312;28;20194;-73
2022/08/11 16:04:14;;;;;;;3.63;3.30;;;41.90;36.50;;;;;;5077191;28;20193;-72
2022/08/11 16:07:00;;;;;;;6.43;3.58;;;41.80;34.80;;;;;;5081729;28;20251;-69
2022/08/11 16:09:36;;;;;;;9.52;3.80;;;41.70;35.40;;;;;;5078016;28;20187;-70
2022/08/11 16:12:07;;;;;;;3.53;3.15;;;42.00;35.20;;;;;;5088238;28;20297;-71
2022/08/11 16:17:31;;;;;;;3.08;2.97;;;41.80;34.20;;;;;;5082823;28;20177;-70
2022/08/11 16:19:59;;;;;;;3.10;2.90;;;41.60;33.10;;;;;;5077858;28;20197;-72
2022/08/11 16:22:37;;;;;;;4.00;3.67;;;41.60;33.60;;;;;;5077302;28;20285;-67
2022/08/11 16:25:07;;;;;;;4.10;3.90;;;41.60;32.70;;;;;;5076101;28;20186;-72
2022/08/11 16:27:37;;;;;;;3.90;3.60;;;41.80;34.20;;;;;;5081439;28;20203;-68
2022/08/11 16:30:05;;;;;;;3.67;3.47;;;41.80;32.50;;;;;;5076533;28;20248;-70
2022/08/11 16:32:33;;;;;;;3.90;3.67;;;42.00;33.00;;;;;;5076059;28;20278;-69
2022/08/11 16:40:38;;;;;;;4.05;3.75;;;42.00;33.40;;;;;;5076752;28;20182;-70
2022/08/11 16:48:40;;;;;;;3.90;3.70;;;42.10;33.30;;;;;;5076702;28;20539;-69
2022/08/11 16:51:09;;;;;;;4.32;4.13;;;42.10;32.90;;;;;;5076508;28;20218;-70
2022/08/11 16:53:38;;;;;;;4.63;3.47;;;42.10;31.40;;;;;;5079240;28;20174;-73
2022/08/11 16:56:06;;;;;;;5.90;3.88;;;41.80;32.40;;;;;;5083092;28;20448;-70
2022/08/11 17:01:20;;;;;;;4.20;3.90;;;41.60;32.80;;;;;;5079814;28;20185;-72
2022/08/11 17:16:05;;;;;;;4.03;3.63;;;40.70;34.60;;;;;;5079458;28;20174;-69
2022/08/11 17:17:58;;;;;;;3.50;3.20;;;40.70;32.60;;;;;;5089799;28;20226;-69
2022/08/11 17:20:26;;;;;;;4.30;3.38;;;40.00;32.10;;;;;;5079938;28;21259;-69
2022/08/11 17:25:39;;;;;;;10.15;3.67;;;37.40;34.20;;;;;;5080313;28;20187;-69
2022/08/11 17:28:06;;;;;;;4.22;2.95;;;27.20;30.20;;;;;;5084487;28;20176;-68
2022/08/11 17:36:05;;;;;;;3.55;3.30;;;-40.00;7.70;;;;;;5078946;28;20194;-69
2022/08/11 17:38:32;;;;;;;2.97;2.88;;;-40.00;9.00;;;;;;5080067;28;20194;-71
2022/08/11 17:49:19;;;;;;;4.07;2.53;;;-40.00;10.00;;;;;;5080483;28;20542;-72
2022/08/11 18:00:07;;;;;;;2.75;2.50;;;-40.00;12.90;;;;;;5082415;28;21132;-70
2022/08/11 18:05:29;;;;;;;7.22;2.83;;;-40.00;15.10;;;;;;5087644;28;20194;-69
